• Join FlightAware (Why Join?)
  • Login
  • US Flag 
01:27PM EST


 

Airport Tracker/Info


-or-


 

Live Flight TrackerFlight Track Log ✈ N600GD ✈ 17-May-2013 ✈ KEFK - KTAN

Flight Track Log - Related Links

Times and Time Zones

All times are in EDT time to prevent confusion due to time zone crossing. See the N600GD flight status page for this flight to view local times or setup timezone preferences in your user account.

Time Position Orientation Groundspeed Altitude Reporting Facility
EDT Latitude Longitude Course Direction KTS MPH feet Rate Location/Type
06:14PM 44.6023 -72.2167 180° South  Level FlightAware Approximate
06:55PM 44.7067 -72.1247 180° South 160 184 5,300  Level Boston Center
06:56PM 44.6692 -72.1044 159° South 155 178 6,000 600 Climbing Boston Center
06:57PM 44.6317 -72.0814 156° South 150 173 6,700 600 Climbing Boston Center
06:58PM 44.5836 -72.0553 159° South 150 173 7,400 600 Climbing Boston Center
06:59PM 44.5439 -72.0322 158° South 150 173 7,900 480 Climbing Boston Center
07:00PM 44.5000 -72.0122 162° South 150 173 8,400 480 Climbing Boston Center
07:01PM 44.4583 -71.9892 158° South 155 178 8,900 360 Climbing Boston Center
07:02PM 44.4144 -71.9664 160° South 160 184 9,200 60 Climbing Boston Center
07:03PM 44.3664 -71.9406 159° South 172 198 9,100 -120 Descending Boston Center
07:04PM 44.3142 -71.9119 159° South 190 219 9,000 -60 Descending Boston Center
07:05PM 44.2661 -71.8836 157° South 190 219 9,000  Level Boston Center
07:06PM 44.2181 -71.8578 159° South 190 219 9,000  Level Boston Center
07:07PM 44.1700 -71.8322 159° South 190 219 9,000  Level Boston Center
07:08PM 44.1219 -71.8067 159° South 190 219 9,000  Level Boston Center
07:09PM 44.0844 -71.7842 157° South 190 219 9,000  Level Boston Center
07:10PM 44.0239 -71.7531 160° South 190 219 9,000  Level Boston Center
07:11PM 43.9778 -71.7333 163° South 190 219 9,000  Level Boston Center
07:12PM 43.9319 -71.7078 158° South 190 219 9,000  Level Boston Center
07:13PM 43.8839 -71.6853 161° South 190 219 9,000  Level Boston Center
07:14PM 43.8336 -71.6600 160° South 190 219 9,000  Level Boston Center
07:15PM 43.7856 -71.6319 157° South 190 219 9,000  Level Boston Center
07:16PM 43.7375 -71.6067 159° South 190 219 9,000  Level Boston Center
07:17PM 43.6892 -71.5817 159° South 190 219 9,000  Level Boston Center
07:18PM 43.6411 -71.5564 159° South 185 213 9,000  Level Boston Center
07:19PM 43.5908 -71.5286 158° South 185 213 9,000  Level Boston Center
07:20PM 43.5469 -71.5064 160° South 191 220 9,000  Level Boston Center
07:21PM 43.4967 -71.4814 160° South 191 220 9,000  Level Boston Center
07:22PM 43.4506 -71.4564 159° South 191 220 9,000  Level Boston Center
07:23PM 43.4006 -71.4314 160° South 191 220 9,000  Level Boston Center
07:24PM 43.3564 -71.4092 160° South 191 220 9,000  Level Boston Center
07:25PM 43.3042 -71.3817 159° South 186 214 9,000  Level Boston Center
07:26PM 43.2500 -71.3500 157° South 185 213 9,000  Level KA90
07:27PM 43.2000 -71.3333 166° South 182 209 9,000  Level KA90
07:28PM 43.1500 -71.3000 154° Southeast 182 209 9,000  Level KA90
07:29PM 43.1167 -71.2833 160° South 183 211 9,000  Level KA90
07:30PM 43.0667 -71.2500 154° Southeast 180 207 9,000  Level KA90
07:31PM 43.0167 -71.2333 166° South 185 213 9,000  Level KA90
07:32PM 42.9667 -71.2000 154° Southeast 178 205 9,000 -60 Level KA90
07:33PM 42.9333 -71.1833 160° South 176 203 8,900 -360 Descending KA90
07:34PM 42.8667 -71.1667 170° South 194 223 8,300 -540 Descending KA90
07:35PM 42.8167 -71.1333 154° Southeast 192 221 7,800 -540 Descending KA90
07:36PM 42.7833 -71.1167 160° South 190 219 7,300 -420 Descending KA90
07:37PM 42.7333 -71.0833 154° Southeast 182 209 7,000 -180 Descending KA90
07:38PM 42.6833 -71.0833 180° South 173 199 7,000  Level KA90
07:39PM 42.6333 -71.0833 180° South 161 185 7,000  Level KA90
07:40PM 42.6000 -71.1167 216° Southwest 159 183 7,000  Level KA90
07:41PM 42.5667 -71.1500 216° Southwest 161 185 7,000  Level KA90
07:42PM 42.5167 -71.1667 194° South 172 198 7,000  Level KA90
07:43PM 42.4667 -71.1500 166° South 175 201 7,000  Level KA90
07:44PM 42.4333 -71.1333 160° South 175 201 7,000  Level KA90
07:45PM 42.3833 -71.1000 154° Southeast 173 199 7,000  Level KA90
07:46PM 42.3667 -71.0500 114° Southeast 175 201 7,000  Level KA90
07:47PM 42.3500 -70.9833 109° East 174 200 7,000 -120 Level KA90
07:48PM 42.3167 -70.9167 124° Southeast 182 209 6,800 -300 Descending KA90
07:49PM 42.2833 -70.8667 132° Southeast 179 206 6,400 -480 Descending KA90
07:50PM 42.2500 -70.8167 132° Southeast 181 208 5,900 -600 Descending KA90
07:51PM 42.2167 -70.8333 200° South 176 203 5,300 -840 Descending KA90
07:52PM 42.1667 -70.8500 194° South 184 212 4,300 -1,020 Descending KA90
07:54PM 42.1250 -70.8738 90° East  Level Estimated